sensor_id;sensor_type;location;lat;lon;timestamp;P1;durP1;ratioP1;P2;durP2;ratioP2
48415;SDS011;34227;51.840;4.146;2022-08-21T00:01:42;8.35;;;2.53;;
48415;SDS011;34227;51.840;4.146;2022-08-21T00:04:08;7.75;;;2.40;;
48415;SDS011;34227;51.840;4.146;2022-08-21T00:06:35;7.18;;;2.10;;
48415;SDS011;34227;51.840;4.146;2022-08-21T00:09:03;8.43;;;2.10;;
48415;SDS011;34227;51.840;4.146;2022-08-21T00:11:34;7.53;;;1.83;;
48415;SDS011;34227;51.840;4.146;2022-08-21T00:14:05;6.72;;;1.88;;
48415;SDS011;34227;51.840;4.146;2022-08-21T00:16:32;7.30;;;2.60;;
48415;SDS011;34227;51.840;4.146;2022-08-21T00:18:58;6.57;;;1.75;;
48415;SDS011;34227;51.840;4.146;2022-08-21T00:21:23;5.30;;;1.70;;
48415;SDS011;34227;51.840;4.146;2022-08-21T00:23:50;4.05;;;1.88;;
48415;SDS011;34227;51.840;4.146;2022-08-21T00:26:16;12.70;;;1.88;;
48415;SDS011;34227;51.840;4.146;2022-08-21T00:31:07;8.32;;;1.98;;
48415;SDS011;34227;51.840;4.146;2022-08-21T00:36:00;6.00;;;1.60;;
48415;SDS011;34227;51.840;4.146;2022-08-21T00:38:26;8.05;;;2.17;;
48415;SDS011;34227;51.840;4.146;2022-08-21T00:43:22;6.68;;;1.40;;
48415;SDS011;34227;51.840;4.146;2022-08-21T00:45:51;14.90;;;1.90;;
48415;SDS011;34227;51.840;4.146;2022-08-21T00:48:18;12.30;;;2.58;;
48415;SDS011;34227;51.840;4.146;2022-08-21T00:50:46;10.52;;;1.80;;
48415;SDS011;34227;51.840;4.146;2022-08-21T00:53:17;9.85;;;2.25;;
48415;SDS011;34227;51.840;4.146;2022-08-21T00:55:43;12.10;;;2.65;;
48415;SDS011;34227;51.840;4.146;2022-08-21T00:58:11;10.63;;;2.20;;
48415;SDS011;34227;51.840;4.146;2022-08-21T01:00:39;8.40;;;1.58;;
48415;SDS011;34227;51.840;4.146;2022-08-21T01:03:11;10.77;;;1.75;;
48415;SDS011;34227;51.840;4.146;2022-08-21T01:05:40;8.35;;;1.88;;
48415;SDS011;34227;51.840;4.146;2022-08-21T01:08:06;7.10;;;1.88;;
48415;SDS011;34227;51.840;4.146;2022-08-21T01:10:34;3.72;;;1.55;;
48415;SDS011;34227;51.840;4.146;2022-08-21T01:13:01;8.25;;;2.03;;
48415;SDS011;34227;51.840;4.146;2022-08-21T01:15:30;6.80;;;2.22;;
48415;SDS011;34227;51.840;4.146;2022-08-21T01:17:59;7.00;;;1.85;;
48415;SDS011;34227;51.840;4.146;2022-08-21T01:20:25;13.05;;;2.97;;
48415;SDS011;34227;51.840;4.146;2022-08-21T01:22:51;5.32;;;1.58;;
48415;SDS011;34227;51.840;4.146;2022-08-21T01:27:44;10.00;;;1.73;;
48415;SDS011;34227;51.840;4.146;2022-08-21T01:30:12;8.25;;;1.92;;
48415;SDS011;34227;51.840;4.146;2022-08-21T01:32:41;10.25;;;1.77;;
48415;SDS011;34227;51.840;4.146;2022-08-21T01:35:07;9.07;;;1.75;;
48415;SDS011;34227;51.840;4.146;2022-08-21T01:37:35;6.97;;;2.53;;
48415;SDS011;34227;51.840;4.146;2022-08-21T01:42:27;9.73;;;1.67;;
48415;SDS011;34227;51.840;4.146;2022-08-21T01:44:53;5.38;;;1.50;;
48415;SDS011;34227;51.840;4.146;2022-08-21T01:49:44;9.43;;;1.60;;
48415;SDS011;34227;51.840;4.146;2022-08-21T01:52:11;9.77;;;1.60;;
48415;SDS011;34227;51.840;4.146;2022-08-21T01:54:37;9.77;;;2.60;;
48415;SDS011;34227;51.840;4.146;2022-08-21T01:59:29;7.85;;;1.90;;
48415;SDS011;34227;51.840;4.146;2022-08-21T02:01:55;7.88;;;1.70;;
48415;SDS011;34227;51.840;4.146;2022-08-21T02:06:46;6.65;;;2.05;;
48415;SDS011;34227;51.840;4.146;2022-08-21T02:09:13;9.98;;;2.17;;
48415;SDS011;34227;51.840;4.146;2022-08-21T02:11:39;8.77;;;2.17;;
48415;SDS011;34227;51.840;4.146;2022-08-21T02:14:09;7.28;;;1.98;;
48415;SDS011;34227;51.840;4.146;2022-08-21T02:16:36;10.02;;;1.98;;
48415;SDS011;34227;51.840;4.146;2022-08-21T02:19:02;7.40;;;2.30;;
48415;SDS011;34227;51.840;4.146;2022-08-21T02:21:29;11.90;;;2.78;;
48415;SDS011;34227;51.840;4.146;2022-08-21T02:23:55;11.80;;;2.30;;
48415;SDS011;34227;51.840;4.146;2022-08-21T02:28:46;7.47;;;2.03;;
48415;SDS011;34227;51.840;4.146;2022-08-21T02:31:12;6.50;;;1.98;;
48415;SDS011;34227;51.840;4.146;2022-08-21T02:36:04;8.98;;;1.95;;
48415;SDS011;34227;51.840;4.146;2022-08-21T02:38:31;8.73;;;2.25;;
48415;SDS011;34227;51.840;4.146;2022-08-21T02:40:58;9.55;;;2.10;;
48415;SDS011;34227;51.840;4.146;2022-08-21T02:43:25;6.55;;;1.92;;
48415;SDS011;34227;51.840;4.146;2022-08-21T02:52:01;9.68;;;2.15;;
48415;SDS011;34227;51.840;4.146;2022-08-21T02:56:52;8.65;;;2.30;;
48415;SDS011;34227;51.840;4.146;2022-08-21T03:01:43;4.75;;;2.38;;
48415;SDS011;34227;51.840;4.146;2022-08-21T03:06:35;11.27;;;2.20;;
48415;SDS011;34227;51.840;4.146;2022-08-21T03:11:27;14.27;;;4.00;;
48415;SDS011;34227;51.840;4.146;2022-08-21T03:13:53;7.70;;;2.33;;
48415;SDS011;34227;51.840;4.146;2022-08-21T03:18:45;13.25;;;3.28;;
48415;SDS011;34227;51.840;4.146;2022-08-21T03:23:38;12.25;;;3.10;;
48415;SDS011;34227;51.840;4.146;2022-08-21T03:26:05;11.68;;;1.95;;
48415;SDS011;34227;51.840;4.146;2022-08-21T03:28:33;10.50;;;3.83;;
48415;SDS011;34227;51.840;4.146;2022-08-21T03:33:25;13.73;;;3.20;;
48415;SDS011;34227;51.840;4.146;2022-08-21T03:38:29;7.28;;;2.80;;
48415;SDS011;34227;51.840;4.146;2022-08-21T03:43:41;7.80;;;2.13;;
48415;SDS011;34227;51.840;4.146;2022-08-21T03:48:33;9.40;;;2.83;;
48415;SDS011;34227;51.840;4.146;2022-08-21T03:51:03;11.15;;;3.50;;
48415;SDS011;34227;51.840;4.146;2022-08-21T03:53:29;8.43;;;2.47;;
48415;SDS011;34227;51.840;4.146;2022-08-21T03:55:56;19.20;;;3.63;;
48415;SDS011;34227;51.840;4.146;2022-08-21T04:00:50;14.77;;;3.33;;
48415;SDS011;34227;51.840;4.146;2022-08-21T04:03:18;9.77;;;3.42;;
48415;SDS011;34227;51.840;4.146;2022-08-21T04:05:44;11.88;;;2.67;;
48415;SDS011;34227;51.840;4.146;2022-08-21T04:08:11;16.97;;;4.33;;
48415;SDS011;34227;51.840;4.146;2022-08-21T04:10:38;15.32;;;3.22;;
48415;SDS011;34227;51.840;4.146;2022-08-21T04:13:05;15.35;;;3.83;;
48415;SDS011;34227;51.840;4.146;2022-08-21T04:15:32;10.18;;;3.15;;
48415;SDS011;34227;51.840;4.146;2022-08-21T04:17:59;16.52;;;3.38;;
48415;SDS011;34227;51.840;4.146;2022-08-21T04:20:25;13.32;;;3.25;;
48415;SDS011;34227;51.840;4.146;2022-08-21T04:22:51;12.45;;;3.15;;
48415;SDS011;34227;51.840;4.146;2022-08-21T04:25:19;11.38;;;3.30;;
48415;SDS011;34227;51.840;4.146;2022-08-21T04:27:47;9.65;;;3.40;;
48415;SDS011;34227;51.840;4.146;2022-08-21T04:32:44;12.13;;;3.42;;
48415;SDS011;34227;51.840;4.146;2022-08-21T04:35:15;16.55;;;3.60;;
48415;SDS011;34227;51.840;4.146;2022-08-21T04:37:45;20.83;;;6.35;;
48415;SDS011;34227;51.840;4.146;2022-08-21T04:42:42;14.38;;;4.18;;
48415;SDS011;34227;51.840;4.146;2022-08-21T04:45:24;11.85;;;3.95;;
48415;SDS011;34227;51.840;4.146;2022-08-21T04:47:53;10.52;;;3.60;;
48415;SDS011;34227;51.840;4.146;2022-08-21T04:50:22;16.92;;;4.35;;
48415;SDS011;34227;51.840;4.146;2022-08-21T04:52:52;12.23;;;4.30;;
48415;SDS011;34227;51.840;4.146;2022-08-21T04:55:18;16.58;;;5.50;;
48415;SDS011;34227;51.840;4.146;2022-08-21T05:00:31;10.07;;;4.00;;
48415;SDS011;34227;51.840;4.146;2022-08-21T05:05:24;15.00;;;4.80;;
48415;SDS011;34227;51.840;4.146;2022-08-21T05:07:52;12.65;;;3.60;;
48415;SDS011;34227;51.840;4.146;2022-08-21T05:10:18;16.77;;;3.63;;
48415;SDS011;34227;51.840;4.146;2022-08-21T05:12:44;14.00;;;4.05;;
48415;SDS011;34227;51.840;4.146;2022-08-21T05:17:37;8.43;;;3.58;;
48415;SDS011;34227;51.840;4.146;2022-08-21T05:20:04;14.40;;;4.30;;
48415;SDS011;34227;51.840;4.146;2022-08-21T05:22:30;11.65;;;4.18;;
48415;SDS011;34227;51.840;4.146;2022-08-21T05:27:22;14.23;;;3.70;;
48415;SDS011;34227;51.840;4.146;2022-08-21T05:32:13;14.13;;;3.70;;
48415;SDS011;34227;51.840;4.146;2022-08-21T05:34:39;9.70;;;3.20;;
48415;SDS011;34227;51.840;4.146;2022-08-21T05:39:32;17.40;;;4.15;;
48415;SDS011;34227;51.840;4.146;2022-08-21T05:41:57;13.50;;;3.22;;
48415;SDS011;34227;51.840;4.146;2022-08-21T05:46:49;16.92;;;4.28;;
48415;SDS011;34227;51.840;4.146;2022-08-21T05:51:40;18.48;;;3.80;;
48415;SDS011;34227;51.840;4.146;2022-08-21T05:54:06;11.60;;;3.63;;
48415;SDS011;34227;51.840;4.146;2022-08-21T05:58:58;12.90;;;3.85;;
48415;SDS011;34227;51.840;4.146;2022-08-21T06:03:49;13.95;;;5.47;;
48415;SDS011;34227;51.840;4.146;2022-08-21T06:06:15;9.80;;;4.35;;
48415;SDS011;34227;51.840;4.146;2022-08-21T06:11:06;16.52;;;4.75;;
48415;SDS011;34227;51.840;4.146;2022-08-21T06:13:33;13.40;;;3.60;;
48415;SDS011;34227;51.840;4.146;2022-08-21T06:18:26;9.15;;;2.90;;
48415;SDS011;34227;51.840;4.146;2022-08-21T06:23:17;18.42;;;4.07;;
48415;SDS011;34227;51.840;4.146;2022-08-21T06:28:09;10.27;;;3.45;;
48415;SDS011;34227;51.840;4.146;2022-08-21T06:30:36;11.73;;;4.13;;
48415;SDS011;34227;51.840;4.146;2022-08-21T06:33:03;13.38;;;3.50;;
48415;SDS011;34227;51.840;4.146;2022-08-21T06:35:29;16.08;;;3.97;;
48415;SDS011;34227;51.840;4.146;2022-08-21T06:40:22;14.52;;;3.10;;
48415;SDS011;34227;51.840;4.146;2022-08-21T06:42:47;13.93;;;4.72;;
48415;SDS011;34227;51.840;4.146;2022-08-21T06:47:39;12.03;;;3.50;;
48415;SDS011;34227;51.840;4.146;2022-08-21T06:50:05;15.50;;;4.10;;
48415;SDS011;34227;51.840;4.146;2022-08-21T06:52:37;10.63;;;3.08;;
48415;SDS011;34227;51.840;4.146;2022-08-21T06:55:04;12.98;;;3.78;;
48415;SDS011;34227;51.840;4.146;2022-08-21T06:57:32;9.82;;;2.65;;
48415;SDS011;34227;51.840;4.146;2022-08-21T06:59:57;12.88;;;3.03;;
48415;SDS011;34227;51.840;4.146;2022-08-21T07:02:23;9.05;;;2.67;;
48415;SDS011;34227;51.840;4.146;2022-08-21T07:04:50;7.25;;;2.75;;
48415;SDS011;34227;51.840;4.146;2022-08-21T07:07:16;8.20;;;2.60;;
48415;SDS011;34227;51.840;4.146;2022-08-21T07:09:42;10.57;;;3.10;;
48415;SDS011;34227;51.840;4.146;2022-08-21T07:12:07;10.63;;;2.70;;
48415;SDS011;34227;51.840;4.146;2022-08-21T07:14:34;8.48;;;2.58;;
48415;SDS011;34227;51.840;4.146;2022-08-21T07:17:00;8.20;;;2.05;;
48415;SDS011;34227;51.840;4.146;2022-08-21T07:19:26;10.13;;;2.78;;
48415;SDS011;34227;51.840;4.146;2022-08-21T07:21:53;10.07;;;2.03;;
48415;SDS011;34227;51.840;4.146;2022-08-21T07:24:24;12.32;;;2.60;;
48415;SDS011;34227;51.840;4.146;2022-08-21T07:26:49;10.30;;;2.90;;
48415;SDS011;34227;51.840;4.146;2022-08-21T07:29:15;9.20;;;2.17;;
48415;SDS011;34227;51.840;4.146;2022-08-21T07:31:41;11.02;;;2.53;;
48415;SDS011;34227;51.840;4.146;2022-08-21T07:34:07;11.20;;;2.67;;
48415;SDS011;34227;51.840;4.146;2022-08-21T07:36:33;10.73;;;2.20;;
48415;SDS011;34227;51.840;4.146;2022-08-21T07:38:59;10.63;;;2.70;;
48415;SDS011;34227;51.840;4.146;2022-08-21T07:41:26;8.50;;;2.33;;
48415;SDS011;34227;51.840;4.146;2022-08-21T07:43:54;14.90;;;2.80;;
48415;SDS011;34227;51.840;4.146;2022-08-21T07:46:23;12.57;;;2.20;;
48415;SDS011;34227;51.840;4.146;2022-08-21T07:48:50;7.70;;;2.45;;
48415;SDS011;34227;51.840;4.146;2022-08-21T07:51:17;9.30;;;1.80;;
48415;SDS011;34227;51.840;4.146;2022-08-21T07:53:47;10.02;;;2.55;;
48415;SDS011;34227;51.840;4.146;2022-08-21T07:56:15;8.57;;;3.58;;
48415;SDS011;34227;51.840;4.146;2022-08-21T07:58:42;10.10;;;2.65;;
48415;SDS011;34227;51.840;4.146;2022-08-21T08:01:07;9.25;;;2.03;;
48415;SDS011;34227;51.840;4.146;2022-08-21T08:03:33;8.68;;;1.92;;
48415;SDS011;34227;51.840;4.146;2022-08-21T08:05:59;8.32;;;1.60;;
48415;SDS011;34227;51.840;4.146;2022-08-21T08:08:25;8.52;;;3.10;;
48415;SDS011;34227;51.840;4.146;2022-08-21T08:10:51;11.55;;;2.53;;
48415;SDS011;34227;51.840;4.146;2022-08-21T08:13:18;8.70;;;3.20;;
48415;SDS011;34227;51.840;4.146;2022-08-21T08:15:44;8.80;;;2.83;;
48415;SDS011;34227;51.840;4.146;2022-08-21T08:18:10;10.32;;;2.92;;
48415;SDS011;34227;51.840;4.146;2022-08-21T08:20:36;8.60;;;2.00;;
48415;SDS011;34227;51.840;4.146;2022-08-21T08:23:02;12.15;;;2.83;;
48415;SDS011;34227;51.840;4.146;2022-08-21T08:25:27;6.88;;;1.50;;
48415;SDS011;34227;51.840;4.146;2022-08-21T08:27:53;7.18;;;1.60;;
48415;SDS011;34227;51.840;4.146;2022-08-21T08:30:19;11.57;;;2.78;;
48415;SDS011;34227;51.840;4.146;2022-08-21T08:35:32;8.38;;;1.63;;
48415;SDS011;34227;51.840;4.146;2022-08-21T08:37:57;6.20;;;1.70;;
48415;SDS011;34227;51.840;4.146;2022-08-21T08:40:36;9.05;;;2.13;;
48415;SDS011;34227;51.840;4.146;2022-08-21T08:48:14;7.88;;;2.10;;
48415;SDS011;34227;51.840;4.146;2022-08-21T08:50:56;5.97;;;1.27;;
48415;SDS011;34227;51.840;4.146;2022-08-21T08:53:31;5.88;;;1.38;;
48415;SDS011;34227;51.840;4.146;2022-08-21T08:56:01;6.43;;;1.40;;
48415;SDS011;34227;51.840;4.146;2022-08-21T08:58:30;12.60;;;2.22;;
48415;SDS011;34227;51.840;4.146;2022-08-21T09:00:58;6.22;;;1.52;;
48415;SDS011;34227;51.840;4.146;2022-08-21T09:03:25;8.30;;;1.70;;
48415;SDS011;34227;51.840;4.146;2022-08-21T09:08:44;5.72;;;1.02;;
48415;SDS011;34227;51.840;4.146;2022-08-21T09:11:36;4.57;;;1.42;;
48415;SDS011;34227;51.840;4.146;2022-08-21T09:16:56;13.20;;;1.92;;
48415;SDS011;34227;51.840;4.146;2022-08-21T09:19:49;4.95;;;1.30;;
48415;SDS011;34227;51.840;4.146;2022-08-21T09:25:12;7.35;;;1.77;;
48415;SDS011;34227;51.840;4.146;2022-08-21T09:27:45;6.32;;;2.00;;
48415;SDS011;34227;51.840;4.146;2022-08-21T09:30:10;7.25;;;1.60;;
48415;SDS011;34227;51.840;4.146;2022-08-21T09:32:37;11.25;;;1.48;;
48415;SDS011;34227;51.840;4.146;2022-08-21T09:35:06;5.95;;;1.60;;
48415;SDS011;34227;51.840;4.146;2022-08-21T09:37:34;9.07;;;2.17;;
48415;SDS011;34227;51.840;4.146;2022-08-21T09:40:15;6.75;;;1.23;;
48415;SDS011;34227;51.840;4.146;2022-08-21T09:42:55;5.63;;;1.05;;
48415;SDS011;34227;51.840;4.146;2022-08-21T09:45:23;5.95;;;1.20;;
48415;SDS011;34227;51.840;4.146;2022-08-21T09:47:49;6.57;;;1.35;;
48415;SDS011;34227;51.840;4.146;2022-08-21T09:50:19;7.45;;;1.38;;
48415;SDS011;34227;51.840;4.146;2022-08-21T09:52:51;7.35;;;1.33;;
48415;SDS011;34227;51.840;4.146;2022-08-21T09:55:21;7.13;;;2.20;;
48415;SDS011;34227;51.840;4.146;2022-08-21T09:58:14;5.95;;;1.35;;
48415;SDS011;34227;51.840;4.146;2022-08-21T10:00:40;7.30;;;1.20;;
48415;SDS011;34227;51.840;4.146;2022-08-21T10:03:17;4.43;;;1.42;;
48415;SDS011;34227;51.840;4.146;2022-08-21T10:08:21;5.57;;;1.20;;
48415;SDS011;34227;51.840;4.146;2022-08-21T10:10:54;6.55;;;1.67;;
48415;SDS011;34227;51.840;4.146;2022-08-21T10:19:15;5.82;;;1.27;;
48415;SDS011;34227;51.840;4.146;2022-08-21T10:32:49;3.90;;;1.40;;
48415;SDS011;34227;51.840;4.146;2022-08-21T10:35:40;6.40;;;1.65;;
48415;SDS011;34227;51.840;4.146;2022-08-21T10:46:12;9.23;;;1.70;;
48415;SDS011;34227;51.840;4.146;2022-08-21T10:48:58;6.35;;;1.48;;
48415;SDS011;34227;51.840;4.146;2022-08-21T10:51:30;6.50;;;1.73;;
48415;SDS011;34227;51.840;4.146;2022-08-21T10:54:10;3.60;;;1.02;;
48415;SDS011;34227;51.840;4.146;2022-08-21T10:56:44;4.50;;;1.83;;
48415;SDS011;34227;51.840;4.146;2022-08-21T11:04:59;7.57;;;1.58;;
48415;SDS011;34227;51.840;4.146;2022-08-21T11:07:38;4.38;;;1.50;;
48415;SDS011;34227;51.840;4.146;2022-08-21T11:10:27;3.90;;;1.20;;
48415;SDS011;34227;51.840;4.146;2022-08-21T11:13:03;6.50;;;1.33;;
48415;SDS011;34227;51.840;4.146;2022-08-21T11:15:39;4.20;;;1.15;;
48415;SDS011;34227;51.840;4.146;2022-08-21T11:18:15;7.00;;;1.70;;
48415;SDS011;34227;51.840;4.146;2022-08-21T11:20:51;6.68;;;1.85;;
48415;SDS011;34227;51.840;4.146;2022-08-21T11:23:30;8.32;;;2.85;;
48415;SDS011;34227;51.840;4.146;2022-08-21T11:26:15;7.20;;;1.75;;
48415;SDS011;34227;51.840;4.146;2022-08-21T11:28:50;5.00;;;1.42;;
48415;SDS011;34227;51.840;4.146;2022-08-21T11:31:31;3.97;;;1.15;;
48415;SDS011;34227;51.840;4.146;2022-08-21T11:36:51;7.82;;;2.03;;
48415;SDS011;34227;51.840;4.146;2022-08-21T11:50:42;7.95;;;1.60;;
48415;SDS011;34227;51.840;4.146;2022-08-21T11:53:14;6.50;;;1.30;;
48415;SDS011;34227;51.840;4.146;2022-08-21T11:55:48;7.88;;;1.25;;
48415;SDS011;34227;51.840;4.146;2022-08-21T11:58:19;4.85;;;1.48;;
48415;SDS011;34227;51.840;4.146;2022-08-21T12:03:22;4.47;;;1.00;;
48415;SDS011;34227;51.840;4.146;2022-08-21T12:06:07;8.35;;;1.40;;
48415;SDS011;34227;51.840;4.146;2022-08-21T12:08:38;7.40;;;1.25;;
48415;SDS011;34227;51.840;4.146;2022-08-21T12:11:20;3.50;;;1.08;;
48415;SDS011;34227;51.840;4.146;2022-08-21T12:13:54;5.93;;;1.20;;
48415;SDS011;34227;51.840;4.146;2022-08-21T12:19:30;8.30;;;2.15;;
48415;SDS011;34227;51.840;4.146;2022-08-21T12:24:39;4.88;;;1.00;;
48415;SDS011;34227;51.840;4.146;2022-08-21T12:29:48;8.13;;;1.45;;
48415;SDS011;34227;51.840;4.146;2022-08-21T12:34:44;5.95;;;1.52;;
48415;SDS011;34227;51.840;4.146;2022-08-21T12:37:22;7.03;;;2.13;;
48415;SDS011;34227;51.840;4.146;2022-08-21T12:39:59;10.25;;;1.48;;
48415;SDS011;34227;51.840;4.146;2022-08-21T12:42:33;6.40;;;1.55;;
48415;SDS011;34227;51.840;4.146;2022-08-21T12:45:07;7.65;;;1.88;;
48415;SDS011;34227;51.840;4.146;2022-08-21T12:50:35;8.02;;;1.35;;
48415;SDS011;34227;51.840;4.146;2022-08-21T12:55:50;8.02;;;1.65;;
48415;SDS011;34227;51.840;4.146;2022-08-21T13:01:05;9.10;;;1.95;;
48415;SDS011;34227;51.840;4.146;2022-08-21T13:03:37;6.07;;;1.17;;
48415;SDS011;34227;51.840;4.146;2022-08-21T13:06:04;6.35;;;1.85;;
48415;SDS011;34227;51.840;4.146;2022-08-21T13:08:30;7.53;;;1.33;;
48415;SDS011;34227;51.840;4.146;2022-08-21T13:11:04;7.43;;;1.35;;
48415;SDS011;34227;51.840;4.146;2022-08-21T13:13:31;10.63;;;1.83;;
48415;SDS011;34227;51.840;4.146;2022-08-21T13:19:01;4.80;;;1.25;;
48415;SDS011;34227;51.840;4.146;2022-08-21T13:21:35;8.13;;;2.00;;
48415;SDS011;34227;51.840;4.146;2022-08-21T13:26:40;8.23;;;1.35;;
48415;SDS011;34227;51.840;4.146;2022-08-21T13:29:14;8.90;;;1.95;;
48415;SDS011;34227;51.840;4.146;2022-08-21T13:31:46;5.35;;;1.17;;
48415;SDS011;34227;51.840;4.146;2022-08-21T13:34:21;5.78;;;1.63;;
48415;SDS011;34227;51.840;4.146;2022-08-21T13:36:51;5.50;;;1.45;;
48415;SDS011;34227;51.840;4.146;2022-08-21T13:42:16;11.38;;;3.40;;
48415;SDS011;34227;51.840;4.146;2022-08-21T13:44:44;5.43;;;1.50;;
48415;SDS011;34227;51.840;4.146;2022-08-21T13:47:16;6.47;;;1.50;;
48415;SDS011;34227;51.840;4.146;2022-08-21T13:49:47;7.18;;;1.90;;
48415;SDS011;34227;51.840;4.146;2022-08-21T13:52:23;6.55;;;1.42;;
48415;SDS011;34227;51.840;4.146;2022-08-21T13:54:52;7.43;;;1.85;;
48415;SDS011;34227;51.840;4.146;2022-08-21T13:57:32;6.07;;;1.55;;
48415;SDS011;34227;51.840;4.146;2022-08-21T14:00:10;6.53;;;1.55;;
48415;SDS011;34227;51.840;4.146;2022-08-21T14:02:38;7.97;;;1.70;;
48415;SDS011;34227;51.840;4.146;2022-08-21T14:05:05;5.97;;;1.90;;
48415;SDS011;34227;51.840;4.146;2022-08-21T14:10:08;10.27;;;2.78;;
48415;SDS011;34227;51.840;4.146;2022-08-21T14:12:53;9.55;;;1.63;;
48415;SDS011;34227;51.840;4.146;2022-08-21T14:15:23;8.77;;;1.30;;
48415;SDS011;34227;51.840;4.146;2022-08-21T14:17:54;4.55;;;1.60;;
48415;SDS011;34227;51.840;4.146;2022-08-21T14:20:35;6.90;;;1.48;;
48415;SDS011;34227;51.840;4.146;2022-08-21T14:23:02;6.50;;;1.70;;
48415;SDS011;34227;51.840;4.146;2022-08-21T14:25:31;6.75;;;1.55;;
48415;SDS011;34227;51.840;4.146;2022-08-21T14:28:11;9.73;;;1.42;;
48415;SDS011;34227;51.840;4.146;2022-08-21T14:30:50;6.70;;;1.42;;
48415;SDS011;34227;51.840;4.146;2022-08-21T14:33:37;9.00;;;1.42;;
48415;SDS011;34227;51.840;4.146;2022-08-21T14:36:01;6.53;;;1.30;;
48415;SDS011;34227;51.840;4.146;2022-08-21T14:41:20;8.82;;;2.13;;
48415;SDS011;34227;51.840;4.146;2022-08-21T14:46:37;9.20;;;1.40;;
48415;SDS011;34227;51.840;4.146;2022-08-21T14:49:06;5.45;;;1.67;;
48415;SDS011;34227;51.840;4.146;2022-08-21T14:51:32;7.03;;;1.45;;
48415;SDS011;34227;51.840;4.146;2022-08-21T14:57:03;6.93;;;1.48;;
48415;SDS011;34227;51.840;4.146;2022-08-21T14:59:32;6.00;;;1.77;;
48415;SDS011;34227;51.840;4.146;2022-08-21T15:01:58;8.55;;;1.30;;
48415;SDS011;34227;51.840;4.146;2022-08-21T15:04:24;5.75;;;1.77;;
48415;SDS011;34227;51.840;4.146;2022-08-21T15:06:50;4.22;;;1.25;;
48415;SDS011;34227;51.840;4.146;2022-08-21T15:09:16;8.77;;;1.50;;
48415;SDS011;34227;51.840;4.146;2022-08-21T15:11:45;5.82;;;1.70;;
48415;SDS011;34227;51.840;4.146;2022-08-21T15:14:14;7.13;;;1.30;;
48415;SDS011;34227;51.840;4.146;2022-08-21T15:16:54;6.53;;;2.05;;
48415;SDS011;34227;51.840;4.146;2022-08-21T15:19:20;4.35;;;1.35;;
48415;SDS011;34227;51.840;4.146;2022-08-21T15:21:47;11.57;;;2.45;;
48415;SDS011;34227;51.840;4.146;2022-08-21T15:24:12;7.20;;;2.08;;
48415;SDS011;34227;51.840;4.146;2022-08-21T15:26:38;7.18;;;1.70;;
48415;SDS011;34227;51.840;4.146;2022-08-21T15:29:04;6.55;;;1.65;;
48415;SDS011;34227;51.840;4.146;2022-08-21T15:31:32;5.70;;;1.50;;
48415;SDS011;34227;51.840;4.146;2022-08-21T15:36:48;3.80;;;1.20;;
48415;SDS011;34227;51.840;4.146;2022-08-21T15:39:14;7.53;;;1.67;;
48415;SDS011;34227;51.840;4.146;2022-08-21T15:41:39;5.68;;;1.35;;
48415;SDS011;34227;51.840;4.146;2022-08-21T15:44:05;6.82;;;1.60;;
48415;SDS011;34227;51.840;4.146;2022-08-21T15:46:31;6.10;;;1.42;;
48415;SDS011;34227;51.840;4.146;2022-08-21T15:48:57;7.47;;;2.00;;
48415;SDS011;34227;51.840;4.146;2022-08-21T15:51:23;9.68;;;1.40;;
48415;SDS011;34227;51.840;4.146;2022-08-21T15:53:48;5.95;;;1.73;;
48415;SDS011;34227;51.840;4.146;2022-08-21T15:58:47;5.93;;;1.88;;
48415;SDS011;34227;51.840;4.146;2022-08-21T16:01:14;7.70;;;1.92;;
48415;SDS011;34227;51.840;4.146;2022-08-21T16:03:40;5.40;;;1.73;;
48415;SDS011;34227;51.840;4.146;2022-08-21T16:06:14;6.05;;;1.50;;
48415;SDS011;34227;51.840;4.146;2022-08-21T16:08:39;5.32;;;1.92;;
48415;SDS011;34227;51.840;4.146;2022-08-21T16:11:07;7.47;;;2.30;;
48415;SDS011;34227;51.840;4.146;2022-08-21T16:13:36;9.68;;;1.77;;
48415;SDS011;34227;51.840;4.146;2022-08-21T16:16:07;5.65;;;1.63;;
48415;SDS011;34227;51.840;4.146;2022-08-21T16:18:37;6.55;;;1.77;;
48415;SDS011;34227;51.840;4.146;2022-08-21T16:21:04;5.80;;;1.63;;
48415;SDS011;34227;51.840;4.146;2022-08-21T16:23:30;4.82;;;1.30;;
48415;SDS011;34227;51.840;4.146;2022-08-21T16:25:59;5.82;;;1.55;;
48415;SDS011;34227;51.840;4.146;2022-08-21T16:28:25;8.57;;;1.92;;
48415;SDS011;34227;51.840;4.146;2022-08-21T16:30:52;7.00;;;1.98;;
48415;SDS011;34227;51.840;4.146;2022-08-21T16:33:34;5.10;;;1.40;;
48415;SDS011;34227;51.840;4.146;2022-08-21T16:36:08;6.57;;;1.77;;
48415;SDS011;34227;51.840;4.146;2022-08-21T16:38:35;5.82;;;1.63;;
48415;SDS011;34227;51.840;4.146;2022-08-21T16:41:02;5.38;;;1.60;;
48415;SDS011;34227;51.840;4.146;2022-08-21T16:43:29;7.07;;;1.65;;
48415;SDS011;34227;51.840;4.146;2022-08-21T16:45:57;5.82;;;1.40;;
48415;SDS011;34227;51.840;4.146;2022-08-21T16:48:24;7.13;;;1.40;;
48415;SDS011;34227;51.840;4.146;2022-08-21T16:50:50;6.93;;;1.52;;
48415;SDS011;34227;51.840;4.146;2022-08-21T16:53:16;5.78;;;1.23;;
48415;SDS011;34227;51.840;4.146;2022-08-21T16:55:41;10.02;;;1.40;;
48415;SDS011;34227;51.840;4.146;2022-08-21T16:58:09;7.50;;;1.75;;
48415;SDS011;34227;51.840;4.146;2022-08-21T17:01:04;6.97;;;1.90;;
48415;SDS011;34227;51.840;4.146;2022-08-21T17:03:38;5.95;;;1.95;;
48415;SDS011;34227;51.840;4.146;2022-08-21T17:06:06;4.72;;;1.55;;
48415;SDS011;34227;51.840;4.146;2022-08-21T17:08:33;6.95;;;1.67;;
48415;SDS011;34227;51.840;4.146;2022-08-21T17:10:59;4.38;;;1.45;;
48415;SDS011;34227;51.840;4.146;2022-08-21T17:13:26;5.93;;;1.50;;
48415;SDS011;34227;51.840;4.146;2022-08-21T17:15:53;8.23;;;1.70;;
48415;SDS011;34227;51.840;4.146;2022-08-21T17:18:20;6.10;;;2.20;;
48415;SDS011;34227;51.840;4.146;2022-08-21T17:20:47;8.50;;;2.78;;
48415;SDS011;34227;51.840;4.146;2022-08-21T17:23:14;5.80;;;1.58;;
48415;SDS011;34227;51.840;4.146;2022-08-21T17:25:42;7.15;;;1.45;;
48415;SDS011;34227;51.840;4.146;2022-08-21T17:28:13;6.35;;;1.58;;
48415;SDS011;34227;51.840;4.146;2022-08-21T17:30:47;5.78;;;1.85;;
48415;SDS011;34227;51.840;4.146;2022-08-21T17:33:14;7.00;;;1.60;;
48415;SDS011;34227;51.840;4.146;2022-08-21T17:35:42;9.18;;;2.00;;
48415;SDS011;34227;51.840;4.146;2022-08-21T17:38:08;8.35;;;1.80;;
48415;SDS011;34227;51.840;4.146;2022-08-21T17:40:34;10.35;;;1.95;;
48415;SDS011;34227;51.840;4.146;2022-08-21T17:43:00;5.43;;;1.45;;
48415;SDS011;34227;51.840;4.146;2022-08-21T17:45:27;8.48;;;2.67;;
48415;SDS011;34227;51.840;4.146;2022-08-21T17:47:53;5.78;;;1.60;;
48415;SDS011;34227;51.840;4.146;2022-08-21T17:50:19;4.57;;;1.60;;
48415;SDS011;34227;51.840;4.146;2022-08-21T17:52:45;6.20;;;1.92;;
48415;SDS011;34227;51.840;4.146;2022-08-21T17:55:11;8.57;;;1.85;;
48415;SDS011;34227;51.840;4.146;2022-08-21T17:57:38;6.93;;;1.90;;
48415;SDS011;34227;51.840;4.146;2022-08-21T18:00:07;8.38;;;1.98;;
48415;SDS011;34227;51.840;4.146;2022-08-21T18:02:36;8.30;;;2.13;;
48415;SDS011;34227;51.840;4.146;2022-08-21T18:05:02;7.82;;;1.30;;
48415;SDS011;34227;51.840;4.146;2022-08-21T18:07:29;6.43;;;1.40;;
48415;SDS011;34227;51.840;4.146;2022-08-21T18:09:55;9.65;;;2.20;;
48415;SDS011;34227;51.840;4.146;2022-08-21T18:12:23;6.35;;;1.75;;
48415;SDS011;34227;51.840;4.146;2022-08-21T18:14:48;6.28;;;1.63;;
48415;SDS011;34227;51.840;4.146;2022-08-21T18:17:16;4.25;;;2.00;;
48415;SDS011;34227;51.840;4.146;2022-08-21T18:19:44;8.80;;;1.98;;
48415;SDS011;34227;51.840;4.146;2022-08-21T18:22:10;7.10;;;1.85;;
48415;SDS011;34227;51.840;4.146;2022-08-21T18:24:36;9.20;;;2.47;;
48415;SDS011;34227;51.840;4.146;2022-08-21T18:27:02;6.95;;;1.85;;